Burns Pinion Ridge Reserve, California Weather observations

Data are for 10 minute period ending at time listed.
 Day   Time   Solar   Ave.   Ave.  Ave.  Vector  Max.   Baro.   Total    
  of    of     Rad.   Air    Rel.  Wind   Wind   Wind  Press.  Precip.   
Year   Day            Temp.  Hum.  Speed  Dir.   Gust                    
2016   (PST)  Kw/m2    F      %     mph   deg.    mph    mb.     in.     
-------------------------------------------------------------------------
 273   20:10   0.00   69.8    41    6.2   218     9.6   879.9    0.00 
 273   20:20   0.00   69.6    41    5.5   213     8.8   880.0    0.00 
 273   20:30   0.00   69.5    41    6.2   211     9.3   880.0    0.00 
 273   20:40   0.00   69.3    42    5.8   211     9.2   880.0    0.00 
 273   20:50   0.00   69.1    42    4.6   222     8.6   880.0    0.00 
 273   21:00   0.00   68.6    43    5.1   220     7.7   880.0    0.00 
 273   21:10   0.00   68.5    44    4.5   218     8.5   879.9    0.00 
 273   21:20   0.00   68.5    44    6.2   211     9.8   879.9    0.00 
 273   21:30   0.00   68.4    44    6.6   209     9.4   879.9    0.00 
 273   21:40   0.00   68.4    44    5.8   210     8.2   880.0    0.00 
 273   21:50   0.00   68.3    44    5.5   208     8.3   880.0    0.00 
 273   22:00   0.00   67.8    45    4.6   212     6.4   880.0    0.00 
 273   22:10   0.00   67.2    46    3.8   182     6.1   880.0    0.00 
 273   22:20   0.00   67.1    46    4.7   197     6.8   880.0    0.00 
 273   22:30   0.00   68.0    45    6.3   206     8.2   880.0    0.00 
 273   22:40   0.00   68.1    45    4.7   194     7.9   879.9    0.00 
 273   22:50   0.00   68.3    45    6.0   202     7.9   879.9    0.00 
 273   23:00   0.00   68.3    45    4.5   208     6.2   879.9    0.00 
 273   23:10   100.00  99999.0   99999  99999.0   99999   99999.0   99999.0   99999.00 
 273   23:20   100.00  99999.0   99999  99999.0   99999   99999.0   99999.0   99999.00 
 273   23:30   100.00  99999.0   99999  99999.0   99999   99999.0   99999.0   99999.00 
 273   23:40   100.00  99999.0   99999  99999.0   99999   99999.0   99999.0   99999.00 
 273   23:50   100.00  99999.0   99999  99999.0   99999   99999.0   99999.0   99999.00 
 274    0:00   0.00   65.8    47    3.5   228     4.0   879.6    0.00 
 274    0:10   0.00   65.0    48    2.4   246     3.9   879.5    0.00 
 274    0:20   0.00   63.2    50    1.7   276     2.8   879.5    0.00 
 274    0:30   0.00   61.6    53    0.0   312     0.4   879.5    0.00 
 274    0:40   0.00   60.6    55    0.4   261     1.2   879.5    0.00 
 274    0:50   0.00   59.8    56    0.1   235     1.4   879.5    0.00 
 274    1:00   0.00   59.3    57    1.1   272     1.8   879.5    0.00 
 274    1:10   0.00   58.8    57    1.9   326     2.9   879.5    0.00 
 274    1:20   0.00   59.2    56    0.9   297     2.0   879.5    0.00 
 274    1:30   0.00   58.9    56    0.6   260     1.4   879.5    0.00 
 274    1:40   0.00   58.2    57    0.8   313     1.7   879.4    0.00 
 274    1:50   0.00   57.8    57    1.0   333     1.5   879.3    0.00 
 274    2:00   0.00   57.6    56    0.9   358     1.5   879.3    0.00 
 274    2:10   0.00   58.2    54    1.3   330     2.3   879.3    0.00 
 274    2:20   0.00   59.0    52    1.0   335     2.1   879.3    0.00 
 274    2:30   0.00   60.3    49    0.2   299     1.2   879.3    0.00 
 274    2:40   0.00   60.5    49    0.2   271     1.1   879.3    0.00 
 274    2:50   0.00   60.9    48    1.1   252     2.6   879.2    0.00 
 274    3:00   0.00   61.1    48    0.3   346     0.9   879.2    0.00 
 274    3:10   0.00   60.9    48    0.4   258     1.6   879.2    0.00 
 274    3:20   0.00   61.5    47    0.1   254     1.0   879.3    0.00 
 274    3:30   0.00   61.8    47    0.1   265     1.3   879.3    0.00 
 274    3:40   0.00   61.8    46    0.0     0     0.0   879.2    0.00 
 274    3:50   0.00   60.8    48    0.0     0     0.0   879.2    0.00 
 274    4:00   0.00   59.8    50    0.2   325     1.1   879.2    0.00 
 274    4:10   0.00   58.9    51    2.3   338     3.9   879.3    0.00 
 274    4:20   0.00   59.0    51    1.5   350     2.6   879.3    0.00 
 274    4:30   0.00   58.7    52    1.2     4     2.8   879.3    0.00 
 274    4:40   0.00   58.1    53    1.2   352     2.2   879.4    0.00 
 274    4:50   0.00   57.6    54    1.4   321     2.9   879.4    0.00 
 274    5:00   0.00   57.8    54    0.0     0     0.0   879.4    0.00 
 274    5:10   0.00   57.2    54    0.1   295     1.0   879.5    0.00 
 274    5:20   0.00   56.4    56    1.6   309     2.3   879.6    0.00 
 274    5:30   0.00   56.7    56    0.7   318     2.0   879.5    0.00 
 274    5:40   0.00   57.0    55    0.0     0     0.0   879.6    0.00 
 274    5:50   0.01   56.4    56    0.6   311     1.8   879.7    0.00 
 274    6:00   0.01   56.2    57    0.6   317     2.4   879.8    0.00 
 274    6:10   0.02   56.4    57    0.4   322     1.2   879.8    0.00 
 274    6:20   0.03   57.3    55    0.5   303     1.2   879.8    0.00 
 274    6:30   0.03   58.9    53    0.0     0     0.0   879.9    0.00 
 274    6:40   0.10   62.0    47    0.0     0     0.0   880.0    0.00 
 274    6:50   0.16   68.9    37    0.0   318     0.7   879.9    0.00 
 274    7:00   0.19   74.3    31    0.1   352     1.1   880.0    0.00 
 274    7:10   0.23   75.7    30    1.2    65     3.4   880.0    0.00 
 274    7:20   0.26   74.4    31    2.4    86     4.2   880.1    0.00 
 274    7:30   0.29   74.8    31    2.3    92     4.5   880.2    0.00 
 274    7:40   0.33   75.1    31    2.9   118     6.0   880.5    0.00 
 274    7:50   0.36   75.0    31    3.3   112     5.5   880.7    0.00 
 274    8:00   0.40   75.7    30    3.1   109     5.2   880.8    0.00 
 274    8:10   0.43   76.0    30    2.9    87     5.3   880.8    0.00 
 274    8:20   0.46   76.4    30    3.1    95     6.6   880.9    0.00 
 274    8:30   0.49   75.9    30    3.2   108     7.2   881.0    0.00 
 274    8:40   0.52   77.2    28    3.2   102     6.6   881.0    0.00 
 274    8:50   0.55   77.7    28    2.5    66     6.6   881.1    0.00 
 274    9:00   0.58   77.9    28    3.0    76     8.3   881.1    0.00 
 274    9:10   0.61   78.3    27    2.9    68     6.9   881.1    0.00 
 274    9:20   0.63   78.2    27    3.0    65     6.4   881.1    0.00 
 274    9:30   0.66   78.9    26    2.9    97     7.7   881.1    0.00 
 274    9:40   0.68   78.7    26    5.0   120    10.2   881.0    0.00 
 274    9:50   0.70   79.1    26    4.7   116     8.9   880.9    0.00 
 274   10:00   0.72   79.5    26    2.2    47     7.3   880.9    0.00 
 274   10:10   0.74   80.8    25    2.5   139     7.9   880.8    0.00 
 274   10:20   0.73   81.0    24    3.0   176     8.0   880.7    0.00 
 274   10:30   0.77   80.5    25    3.2   168     8.6   880.6    0.00 
 274   10:40   0.78   80.8    25    5.8   159    10.4   880.5    0.00 
 274   10:50   0.81   80.8    25    6.1   158    11.9   880.5    0.00 
 274   11:00   0.83   80.3    25    3.5   224     9.6   880.4    0.00 
 274   11:10   0.83   80.5    25    6.5   182    11.8   880.2    0.00 
 274   11:20   0.83   80.8    25    7.3   169    13.4   880.0    0.00 
 274   11:30   0.79   80.5    25    3.3   135     7.9   879.9    0.00 
 274   11:40   0.43   80.2    25    3.1    52     6.9   879.8    0.00 
 274   11:50   0.75   80.6    25    4.5   156     9.3   879.6    0.00 
 274   12:00   0.88   81.6    24    4.5   119    11.0   879.5    0.00 
 274   12:10   0.87   82.5    24    5.1   170    12.9   879.3    0.00 
 274   12:20   0.86   82.8    23    5.1   162    12.2   879.1    0.00 
 274   12:30   0.86   84.2    22    7.2   176    13.2   878.9    0.00 
 274   12:40   0.83   83.3    23    5.7   174    15.2   878.7    0.00 
 274   12:50   0.81   82.8    23    5.7   206    13.4   878.6    0.00 
 274   13:00   0.79   82.1    24    6.5   223    13.6   878.4    0.00 
 274   13:10   0.78   82.5    23    7.1   206    14.0   878.3    0.00 
 274   13:20   0.75   82.6    23    5.1   219    11.8   878.2    0.00 
 274   13:30   0.73   83.2    22    5.8   210    11.6   878.1    0.00 
 274   13:40   0.71   82.9    22    5.6   239    12.0   878.0    0.00 
 274   13:50   0.68   83.5    22    6.0   188    10.5   877.9    0.00 
 274   14:00   0.65   82.8    23    5.9   201    13.9   877.9    0.00 
 274   14:10   0.62   82.9    23    4.9   203    11.8   877.9    0.00 
 274   14:20   0.60   82.9    23    6.9   143    11.3   877.8    0.00 
 274   14:30   0.57   83.6    23    6.9   155    15.2   877.7    0.00 
 274   14:40   0.54   82.2    24    6.4   187    16.4   877.6    0.00 
 274   14:50   0.52   82.4    24    9.9   150    19.3   877.5    0.00 
 274   15:00   0.49   82.7    24    7.3   163    14.7   877.4    0.00 
 274   15:10   0.47   82.5    24    7.7   153    16.4   877.3    0.00 
 274   15:20   0.43   82.1    24    7.0   215    15.0   877.3    0.00 
 274   15:30   0.39   81.7    24    7.6   219    15.3   877.3    0.00 
 274   15:40   0.35   81.2    24    7.8   213    15.9   877.2    0.00 
 274   15:50   0.31   80.6    25    7.6   213    16.7   877.1    0.00 
 274   16:00   0.28   80.9    24    5.7   194    14.2   877.0    0.00 
 274   16:10   0.24   81.0    24    7.2   212    15.6   877.0    0.00 
 274   16:20   0.10   79.3    25    6.6   211    12.1   877.0    0.00 
 274   16:30   0.06   78.2    26    6.5   212    12.1   877.0    0.00 
 274   16:40   0.11   78.2    26    5.9   193    14.2   876.9    0.00 
 274   16:50   0.08   78.3    26    8.4   211    17.5   876.9    0.00 
 274   17:00   0.03   76.7    28    7.7   205    14.9   876.8    0.00 
 274   17:10   0.03   76.4    30    7.8   203    16.9   876.8    0.00 
 274   17:20   0.01   75.8    31    9.7   214    19.4   876.8    0.00 
 274   17:30   0.01   75.0    32    9.0   214    17.2   876.8    0.00 
 274   17:40   0.00   74.5    33    9.8   217    17.1   876.7    0.00 
 274   17:50   0.00   74.1    34    7.3   213    17.4   876.7    0.00 
 274   18:00   0.00   73.7    35    6.1   208    12.1   876.7    0.00 
 274   18:10   0.00   73.5    35    7.3   209    14.5   876.7    0.00 
 274   18:20   0.00   73.4    35    8.6   213    16.9   876.7    0.00 
 274   18:30   0.00   73.2    35    9.5   213    15.0   876.7    0.00 
 274   18:40   0.00   72.9    36    8.5   211    14.1   876.7    0.00 
 274   18:50   0.00   72.5    36    7.2   215    15.8   876.7    0.00 
 274   19:00   0.00   72.3    37    7.6   219    16.7   876.7    0.00 
 274   19:10   0.00   72.1    37    6.6   217    13.2   876.8    0.00 
 274   19:20   0.00   71.8    38    5.1   229    10.3   876.8    0.00 
 274   19:30   0.00   71.5    39    4.9   240     9.6   876.8    0.00 
 274   19:40   0.00   71.4    39    4.4   224     9.6   876.9    0.00 
 274   19:50   0.00   71.2    40    5.0   230    10.6   877.0    0.00 
 274   20:00   0.00   71.0    40    4.7   240    13.7   877.0    0.00 

Return to Burns Pinion Ridge Reserve graphs page.


Western Regional Climate Center,wrcc@dri.edu